sensor_id;sensor_type;location;lat;lon;timestamp;temperature;humidity
53268;DHT22;39156;51.176;6.738;2022-07-26T00:00:19;20.80;47.90
53268;DHT22;39156;51.176;6.738;2022-07-26T00:02:45;20.80;48.00
53268;DHT22;39156;51.176;6.738;2022-07-26T00:05:11;20.70;48.30
53268;DHT22;39156;51.176;6.738;2022-07-26T00:07:36;20.70;48.40
53268;DHT22;39156;51.176;6.738;2022-07-26T00:10:04;20.60;48.40
53268;DHT22;39156;51.176;6.738;2022-07-26T00:12:31;20.60;48.70
53268;DHT22;39156;51.176;6.738;2022-07-26T00:14:57;20.50;49.50
53268;DHT22;39156;51.176;6.738;2022-07-26T00:17:26;20.50;49.00
53268;DHT22;39156;51.176;6.738;2022-07-26T00:19:52;20.40;49.20
53268;DHT22;39156;51.176;6.738;2022-07-26T00:22:18;20.30;49.10
53268;DHT22;39156;51.176;6.738;2022-07-26T00:24:59;20.30;49.30
53268;DHT22;39156;51.176;6.738;2022-07-26T00:27:25;20.30;49.40
53268;DHT22;39156;51.176;6.738;2022-07-26T00:29:51;20.20;49.30
53268;DHT22;39156;51.176;6.738;2022-07-26T00:32:16;20.10;49.60
53268;DHT22;39156;51.176;6.738;2022-07-26T00:34:45;20.10;49.70
53268;DHT22;39156;51.176;6.738;2022-07-26T00:37:11;20.00;49.90
53268;DHT22;39156;51.176;6.738;2022-07-26T00:39:37;20.00;49.90
53268;DHT22;39156;51.176;6.738;2022-07-26T00:42:02;19.90;50.00
53268;DHT22;39156;51.176;6.738;2022-07-26T00:44:38;19.90;50.10
53268;DHT22;39156;51.176;6.738;2022-07-26T00:47:05;19.80;50.60
53268;DHT22;39156;51.176;6.738;2022-07-26T00:49:31;19.80;50.30
53268;DHT22;39156;51.176;6.738;2022-07-26T00:51:57;19.70;50.40
53268;DHT22;39156;51.176;6.738;2022-07-26T00:54:23;19.70;50.50
53268;DHT22;39156;51.176;6.738;2022-07-26T00:56:48;19.70;50.70
53268;DHT22;39156;51.176;6.738;2022-07-26T00:59:14;19.70;50.80
53268;DHT22;39156;51.176;6.738;2022-07-26T01:01:40;19.60;50.80
53268;DHT22;39156;51.176;6.738;2022-07-26T01:04:06;19.60;50.90
53268;DHT22;39156;51.176;6.738;2022-07-26T01:06:32;19.60;51.10
53268;DHT22;39156;51.176;6.738;2022-07-26T01:08:58;19.60;51.20
53268;DHT22;39156;51.176;6.738;2022-07-26T01:11:25;19.50;51.30
53268;DHT22;39156;51.176;6.738;2022-07-26T01:13:52;19.50;51.50
53268;DHT22;39156;51.176;6.738;2022-07-26T01:16:17;19.40;51.60
53268;DHT22;39156;51.176;6.738;2022-07-26T01:18:43;19.40;51.70
53268;DHT22;39156;51.176;6.738;2022-07-26T01:21:09;19.30;51.70
53268;DHT22;39156;51.176;6.738;2022-07-26T01:23:36;19.30;51.80
53268;DHT22;39156;51.176;6.738;2022-07-26T01:26:03;19.30;52.10
53268;DHT22;39156;51.176;6.738;2022-07-26T01:28:29;19.20;52.10
53268;DHT22;39156;51.176;6.738;2022-07-26T01:30:55;19.30;51.60
53268;DHT22;39156;51.176;6.738;2022-07-26T01:33:21;19.20;52.10
53268;DHT22;39156;51.176;6.738;2022-07-26T01:35:47;19.20;52.40
53268;DHT22;39156;51.176;6.738;2022-07-26T01:38:13;19.30;52.60
53268;DHT22;39156;51.176;6.738;2022-07-26T01:40:39;19.20;52.60
53268;DHT22;39156;51.176;6.738;2022-07-26T01:43:04;19.20;52.60
53268;DHT22;39156;51.176;6.738;2022-07-26T01:45:30;19.30;52.60
53268;DHT22;39156;51.176;6.738;2022-07-26T01:47:56;19.30;52.70
53268;DHT22;39156;51.176;6.738;2022-07-26T01:50:24;19.30;52.60
53268;DHT22;39156;51.176;6.738;2022-07-26T01:52:50;19.30;52.80
53268;DHT22;39156;51.176;6.738;2022-07-26T01:55:15;19.30;52.60
53268;DHT22;39156;51.176;6.738;2022-07-26T01:57:44;19.30;52.60
53268;DHT22;39156;51.176;6.738;2022-07-26T02:00:10;19.30;52.80
53268;DHT22;39156;51.176;6.738;2022-07-26T02:02:37;19.30;52.80
53268;DHT22;39156;51.176;6.738;2022-07-26T02:05:04;19.30;52.80
53268;DHT22;39156;51.176;6.738;2022-07-26T02:07:36;19.30;52.80
53268;DHT22;39156;51.176;6.738;2022-07-26T02:10:04;19.30;53.10
53268;DHT22;39156;51.176;6.738;2022-07-26T02:12:30;19.30;52.90
53268;DHT22;39156;51.176;6.738;2022-07-26T02:14:56;19.30;51.80
53268;DHT22;39156;51.176;6.738;2022-07-26T02:17:22;19.30;52.80
53268;DHT22;39156;51.176;6.738;2022-07-26T02:19:47;19.30;53.00
53268;DHT22;39156;51.176;6.738;2022-07-26T02:22:13;19.30;53.00
53268;DHT22;39156;51.176;6.738;2022-07-26T02:24:39;19.30;53.20
53268;DHT22;39156;51.176;6.738;2022-07-26T02:27:05;19.30;53.20
53268;DHT22;39156;51.176;6.738;2022-07-26T02:29:30;19.30;53.20
53268;DHT22;39156;51.176;6.738;2022-07-26T02:31:57;19.30;53.30
53268;DHT22;39156;51.176;6.738;2022-07-26T02:34:23;19.20;53.50
53268;DHT22;39156;51.176;6.738;2022-07-26T02:36:49;19.20;53.50
53268;DHT22;39156;51.176;6.738;2022-07-26T02:39:17;19.20;53.50
53268;DHT22;39156;51.176;6.738;2022-07-26T02:41:45;19.10;53.70
53268;DHT22;39156;51.176;6.738;2022-07-26T02:44:16;19.10;53.70
53268;DHT22;39156;51.176;6.738;2022-07-26T02:46:43;19.10;54.10
53268;DHT22;39156;51.176;6.738;2022-07-26T02:49:10;19.10;54.00
53268;DHT22;39156;51.176;6.738;2022-07-26T02:52:00;19.00;54.10
53268;DHT22;39156;51.176;6.738;2022-07-26T02:54:26;19.00;54.00
53268;DHT22;39156;51.176;6.738;2022-07-26T02:56:52;19.00;54.10
53268;DHT22;39156;51.176;6.738;2022-07-26T02:59:24;18.90;54.30
53268;DHT22;39156;51.176;6.738;2022-07-26T03:01:49;18.90;54.70
53268;DHT22;39156;51.176;6.738;2022-07-26T03:04:15;18.80;54.50
53268;DHT22;39156;51.176;6.738;2022-07-26T03:06:52;18.80;54.70
53268;DHT22;39156;51.176;6.738;2022-07-26T03:09:24;18.80;55.00
53268;DHT22;39156;51.176;6.738;2022-07-26T03:12:16;18.80;54.90
53268;DHT22;39156;51.176;6.738;2022-07-26T03:15:08;18.70;55.30
53268;DHT22;39156;51.176;6.738;2022-07-26T03:17:49;18.70;55.10
53268;DHT22;39156;51.176;6.738;2022-07-26T03:20:31;18.70;55.70
53268;DHT22;39156;51.176;6.738;2022-07-26T03:22:58;18.70;55.60
53268;DHT22;39156;51.176;6.738;2022-07-26T03:25:29;18.70;55.40
53268;DHT22;39156;51.176;6.738;2022-07-26T03:27:57;18.70;55.70
53268;DHT22;39156;51.176;6.738;2022-07-26T03:30:23;18.70;55.50
53268;DHT22;39156;51.176;6.738;2022-07-26T03:32:49;18.60;55.70
53268;DHT22;39156;51.176;6.738;2022-07-26T03:35:15;18.60;55.80
53268;DHT22;39156;51.176;6.738;2022-07-26T03:37:41;18.60;55.80
53268;DHT22;39156;51.176;6.738;2022-07-26T03:40:08;18.60;56.00
53268;DHT22;39156;51.176;6.738;2022-07-26T03:42:35;18.60;56.10
53268;DHT22;39156;51.176;6.738;2022-07-26T03:45:01;18.60;56.10
53268;DHT22;39156;51.176;6.738;2022-07-26T03:47:26;18.60;56.20
53268;DHT22;39156;51.176;6.738;2022-07-26T03:49:52;18.60;56.40
53268;DHT22;39156;51.176;6.738;2022-07-26T03:52:18;18.50;56.30
53268;DHT22;39156;51.176;6.738;2022-07-26T03:54:44;18.60;56.50
53268;DHT22;39156;51.176;6.738;2022-07-26T03:57:10;18.60;56.50
53268;DHT22;39156;51.176;6.738;2022-07-26T03:59:38;18.60;56.60
53268;DHT22;39156;51.176;6.738;2022-07-26T04:02:03;18.60;56.70
53268;DHT22;39156;51.176;6.738;2022-07-26T04:04:29;18.60;56.80
53268;DHT22;39156;51.176;6.738;2022-07-26T04:06:55;18.60;56.80
53268;DHT22;39156;51.176;6.738;2022-07-26T04:09:24;18.60;56.80
53268;DHT22;39156;51.176;6.738;2022-07-26T04:11:51;18.60;56.90
53268;DHT22;39156;51.176;6.738;2022-07-26T04:14:19;18.60;56.90
53268;DHT22;39156;51.176;6.738;2022-07-26T04:16:46;18.60;57.00
53268;DHT22;39156;51.176;6.738;2022-07-26T04:19:32;18.60;57.00
53268;DHT22;39156;51.176;6.738;2022-07-26T04:22:02;18.50;57.40
53268;DHT22;39156;51.176;6.738;2022-07-26T04:24:29;18.60;57.10
53268;DHT22;39156;51.176;6.738;2022-07-26T04:26:57;18.60;57.10
53268;DHT22;39156;51.176;6.738;2022-07-26T04:29:42;18.60;57.30
53268;DHT22;39156;51.176;6.738;2022-07-26T04:32:14;18.50;57.50
53268;DHT22;39156;51.176;6.738;2022-07-26T04:34:39;18.60;57.40
53268;DHT22;39156;51.176;6.738;2022-07-26T04:37:07;18.60;57.30
53268;DHT22;39156;51.176;6.738;2022-07-26T04:39:33;18.60;57.40
53268;DHT22;39156;51.176;6.738;2022-07-26T04:41:59;18.50;57.50
53268;DHT22;39156;51.176;6.738;2022-07-26T04:44:24;18.60;57.70
53268;DHT22;39156;51.176;6.738;2022-07-26T04:46:50;18.60;57.80
53268;DHT22;39156;51.176;6.738;2022-07-26T04:49:16;18.60;57.80
53268;DHT22;39156;51.176;6.738;2022-07-26T04:51:42;18.60;57.90
53268;DHT22;39156;51.176;6.738;2022-07-26T04:54:07;18.60;58.00
53268;DHT22;39156;51.176;6.738;2022-07-26T04:56:33;18.60;57.90
53268;DHT22;39156;51.176;6.738;2022-07-26T04:59:00;18.60;58.00
53268;DHT22;39156;51.176;6.738;2022-07-26T05:01:28;18.60;58.10
53268;DHT22;39156;51.176;6.738;2022-07-26T05:03:53;18.60;58.30
53268;DHT22;39156;51.176;6.738;2022-07-26T05:06:19;18.60;58.20
53268;DHT22;39156;51.176;6.738;2022-07-26T05:08:45;18.60;58.30
53268;DHT22;39156;51.176;6.738;2022-07-26T05:11:10;18.60;58.40
53268;DHT22;39156;51.176;6.738;2022-07-26T05:13:36;18.70;58.40
53268;DHT22;39156;51.176;6.738;2022-07-26T05:16:04;18.70;58.40
53268;DHT22;39156;51.176;6.738;2022-07-26T05:18:40;18.70;58.40
53268;DHT22;39156;51.176;6.738;2022-07-26T05:21:09;18.70;58.80
53268;DHT22;39156;51.176;6.738;2022-07-26T05:23:35;18.70;58.50
53268;DHT22;39156;51.176;6.738;2022-07-26T05:26:01;18.80;58.60
53268;DHT22;39156;51.176;6.738;2022-07-26T05:28:29;18.90;58.60
53268;DHT22;39156;51.176;6.738;2022-07-26T05:30:54;18.80;58.50
53268;DHT22;39156;51.176;6.738;2022-07-26T05:33:20;18.90;58.60
53268;DHT22;39156;51.176;6.738;2022-07-26T05:35:46;18.90;58.60
53268;DHT22;39156;51.176;6.738;2022-07-26T05:38:12;19.00;58.60
53268;DHT22;39156;51.176;6.738;2022-07-26T05:40:37;19.00;58.70
53268;DHT22;39156;51.176;6.738;2022-07-26T05:43:08;19.00;58.60
53268;DHT22;39156;51.176;6.738;2022-07-26T05:45:37;19.00;58.70
53268;DHT22;39156;51.176;6.738;2022-07-26T05:48:03;19.10;58.60
53268;DHT22;39156;51.176;6.738;2022-07-26T05:50:28;19.10;58.60
53268;DHT22;39156;51.176;6.738;2022-07-26T05:52:54;19.10;58.60
53268;DHT22;39156;51.176;6.738;2022-07-26T05:55:20;19.20;58.50
53268;DHT22;39156;51.176;6.738;2022-07-26T05:57:46;19.30;58.50
53268;DHT22;39156;51.176;6.738;2022-07-26T06:00:12;19.30;58.50
53268;DHT22;39156;51.176;6.738;2022-07-26T06:02:41;19.30;58.50
53268;DHT22;39156;51.176;6.738;2022-07-26T06:05:07;19.30;58.60
53268;DHT22;39156;51.176;6.738;2022-07-26T06:07:33;19.30;58.60
53268;DHT22;39156;51.176;6.738;2022-07-26T06:09:59;19.30;58.70
53268;DHT22;39156;51.176;6.738;2022-07-26T06:12:25;19.40;58.70
53268;DHT22;39156;51.176;6.738;2022-07-26T06:14:50;19.40;58.60
53268;DHT22;39156;51.176;6.738;2022-07-26T06:17:16;19.40;58.60
53268;DHT22;39156;51.176;6.738;2022-07-26T06:19:42;19.40;58.60
53268;DHT22;39156;51.176;6.738;2022-07-26T06:22:08;19.50;58.50
53268;DHT22;39156;51.176;6.738;2022-07-26T06:24:33;19.50;58.50
53268;DHT22;39156;51.176;6.738;2022-07-26T06:26:59;19.50;58.40
53268;DHT22;39156;51.176;6.738;2022-07-26T06:29:25;19.50;58.30
53268;DHT22;39156;51.176;6.738;2022-07-26T06:31:51;19.60;58.40
53268;DHT22;39156;51.176;6.738;2022-07-26T06:34:17;19.60;58.40
53268;DHT22;39156;51.176;6.738;2022-07-26T06:36:42;19.60;59.00
53268;DHT22;39156;51.176;6.738;2022-07-26T06:39:08;19.60;58.40
53268;DHT22;39156;51.176;6.738;2022-07-26T06:41:34;19.60;58.30
53268;DHT22;39156;51.176;6.738;2022-07-26T06:44:00;19.60;58.30
53268;DHT22;39156;51.176;6.738;2022-07-26T06:46:26;19.70;58.30
53268;DHT22;39156;51.176;6.738;2022-07-26T06:48:51;19.70;58.30
53268;DHT22;39156;51.176;6.738;2022-07-26T06:51:17;19.70;58.40
53268;DHT22;39156;51.176;6.738;2022-07-26T06:53:43;19.70;58.50
53268;DHT22;39156;51.176;6.738;2022-07-26T06:56:09;19.70;58.50
53268;DHT22;39156;51.176;6.738;2022-07-26T06:58:34;19.80;58.50
53268;DHT22;39156;51.176;6.738;2022-07-26T07:01:00;19.80;58.40
53268;DHT22;39156;51.176;6.738;2022-07-26T07:03:26;19.90;58.40
53268;DHT22;39156;51.176;6.738;2022-07-26T07:05:51;20.00;58.30
53268;DHT22;39156;51.176;6.738;2022-07-26T07:08:17;20.10;58.20
53268;DHT22;39156;51.176;6.738;2022-07-26T07:10:43;20.20;58.00
53268;DHT22;39156;51.176;6.738;2022-07-26T07:13:09;20.40;57.80
53268;DHT22;39156;51.176;6.738;2022-07-26T07:15:35;20.50;57.90
53268;DHT22;39156;51.176;6.738;2022-07-26T07:18:00;20.60;57.80
53268;DHT22;39156;51.176;6.738;2022-07-26T07:20:26;20.70;57.80
53268;DHT22;39156;51.176;6.738;2022-07-26T07:22:53;20.80;57.30
53268;DHT22;39156;51.176;6.738;2022-07-26T07:25:19;21.00;57.20
53268;DHT22;39156;51.176;6.738;2022-07-26T07:27:45;21.10;57.00
53268;DHT22;39156;51.176;6.738;2022-07-26T07:30:11;21.20;56.70
53268;DHT22;39156;51.176;6.738;2022-07-26T07:32:37;21.30;56.50
53268;DHT22;39156;51.176;6.738;2022-07-26T07:35:03;21.40;56.30
53268;DHT22;39156;51.176;6.738;2022-07-26T07:37:29;21.50;56.20
53268;DHT22;39156;51.176;6.738;2022-07-26T07:39:55;21.60;56.10
53268;DHT22;39156;51.176;6.738;2022-07-26T07:42:20;21.60;55.80
53268;DHT22;39156;51.176;6.738;2022-07-26T07:44:46;21.70;55.80
53268;DHT22;39156;51.176;6.738;2022-07-26T07:47:12;21.70;55.60
53268;DHT22;39156;51.176;6.738;2022-07-26T07:49:38;21.80;55.70
53268;DHT22;39156;51.176;6.738;2022-07-26T07:52:04;21.80;55.50
53268;DHT22;39156;51.176;6.738;2022-07-26T07:54:30;21.90;55.30
53268;DHT22;39156;51.176;6.738;2022-07-26T07:56:56;22.00;55.20
53268;DHT22;39156;51.176;6.738;2022-07-26T07:59:22;22.00;55.00
53268;DHT22;39156;51.176;6.738;2022-07-26T08:01:48;22.10;54.80
53268;DHT22;39156;51.176;6.738;2022-07-26T08:04:14;22.20;55.10
53268;DHT22;39156;51.176;6.738;2022-07-26T08:06:39;22.40;55.10
53268;DHT22;39156;51.176;6.738;2022-07-26T08:09:05;22.50;55.00
53268;DHT22;39156;51.176;6.738;2022-07-26T08:11:31;22.60;54.50
53268;DHT22;39156;51.176;6.738;2022-07-26T08:13:57;22.70;54.30
53268;DHT22;39156;51.176;6.738;2022-07-26T08:16:23;22.90;54.50
53268;DHT22;39156;51.176;6.738;2022-07-26T08:18:48;23.00;54.90
53268;DHT22;39156;51.176;6.738;2022-07-26T08:21:14;23.20;53.90
53268;DHT22;39156;51.176;6.738;2022-07-26T08:23:40;23.40;53.60
53268;DHT22;39156;51.176;6.738;2022-07-26T08:26:06;23.50;53.00
53268;DHT22;39156;51.176;6.738;2022-07-26T08:28:32;23.70;52.90
53268;DHT22;39156;51.176;6.738;2022-07-26T08:30:57;23.80;52.70
53268;DHT22;39156;51.176;6.738;2022-07-26T08:33:23;23.90;52.80
53268;DHT22;39156;51.176;6.738;2022-07-26T08:35:49;24.10;52.40
53268;DHT22;39156;51.176;6.738;2022-07-26T08:38:14;24.20;51.80
53268;DHT22;39156;51.176;6.738;2022-07-26T08:40:40;24.20;51.30
53268;DHT22;39156;51.176;6.738;2022-07-26T08:43:06;24.30;50.80
53268;DHT22;39156;51.176;6.738;2022-07-26T08:45:33;24.40;50.80
53268;DHT22;39156;51.176;6.738;2022-07-26T08:47:59;24.50;51.10
53268;DHT22;39156;51.176;6.738;2022-07-26T08:50:26;24.60;51.00
53268;DHT22;39156;51.176;6.738;2022-07-26T08:52:59;24.80;50.90
53268;DHT22;39156;51.176;6.738;2022-07-26T08:55:26;25.00;49.70
53268;DHT22;39156;51.176;6.738;2022-07-26T08:57:52;25.10;49.30
53268;DHT22;39156;51.176;6.738;2022-07-26T09:00:26;25.10;48.70
53268;DHT22;39156;51.176;6.738;2022-07-26T09:02:57;25.10;48.10
53268;DHT22;39156;51.176;6.738;2022-07-26T09:07:58;25.00;48.20
53268;DHT22;39156;51.176;6.738;2022-07-26T09:10:25;25.00;48.70
53268;DHT22;39156;51.176;6.738;2022-07-26T09:12:54;25.10;49.60
53268;DHT22;39156;51.176;6.738;2022-07-26T09:15:22;25.40;49.80
53268;DHT22;39156;51.176;6.738;2022-07-26T09:17:52;25.80;49.50
53268;DHT22;39156;51.176;6.738;2022-07-26T09:20:21;26.30;49.30
53268;DHT22;39156;51.176;6.738;2022-07-26T09:25:31;27.20;46.30
53268;DHT22;39156;51.176;6.738;2022-07-26T09:28:01;27.60;46.30
53268;DHT22;39156;51.176;6.738;2022-07-26T09:30:30;28.00;46.10
53268;DHT22;39156;51.176;6.738;2022-07-26T09:33:03;28.40;45.40
53268;DHT22;39156;51.176;6.738;2022-07-26T09:35:35;28.70;44.00
53268;DHT22;39156;51.176;6.738;2022-07-26T09:38:22;28.80;42.60
53268;DHT22;39156;51.176;6.738;2022-07-26T09:40:47;28.90;42.60
53268;DHT22;39156;51.176;6.738;2022-07-26T09:43:13;29.00;42.80
53268;DHT22;39156;51.176;6.738;2022-07-26T09:45:40;29.20;42.50
53268;DHT22;39156;51.176;6.738;2022-07-26T09:48:11;29.30;41.90
53268;DHT22;39156;51.176;6.738;2022-07-26T09:50:37;29.30;41.30
53268;DHT22;39156;51.176;6.738;2022-07-26T09:53:11;29.40;41.60
53268;DHT22;39156;51.176;6.738;2022-07-26T09:55:57;29.40;41.00
53268;DHT22;39156;51.176;6.738;2022-07-26T09:58:24;29.30;41.00
53268;DHT22;39156;51.176;6.738;2022-07-26T10:00:51;29.20;40.90
53268;DHT22;39156;51.176;6.738;2022-07-26T10:03:16;29.10;42.00
53268;DHT22;39156;51.176;6.738;2022-07-26T10:05:42;28.90;42.50
53268;DHT22;39156;51.176;6.738;2022-07-26T10:08:08;28.50;42.60
53268;DHT22;39156;51.176;6.738;2022-07-26T10:10:48;28.20;43.60
53268;DHT22;39156;51.176;6.738;2022-07-26T10:13:16;27.80;43.80
53268;DHT22;39156;51.176;6.738;2022-07-26T10:15:42;27.40;43.80
53268;DHT22;39156;51.176;6.738;2022-07-26T10:18:40;27.10;43.80
53268;DHT22;39156;51.176;6.738;2022-07-26T10:21:25;26.80;45.00
53268;DHT22;39156;51.176;6.738;2022-07-26T10:23:55;26.40;45.70
53268;DHT22;39156;51.176;6.738;2022-07-26T10:31:45;25.90;46.30
53268;DHT22;39156;51.176;6.738;2022-07-26T10:34:31;25.80;46.60
53268;DHT22;39156;51.176;6.738;2022-07-26T10:37:00;25.90;46.40
53268;DHT22;39156;51.176;6.738;2022-07-26T10:39:30;26.00;45.20
53268;DHT22;39156;51.176;6.738;2022-07-26T10:41:59;26.00;44.80
53268;DHT22;39156;51.176;6.738;2022-07-26T10:44:31;26.10;45.00
53268;DHT22;39156;51.176;6.738;2022-07-26T10:49:41;26.40;44.30
53268;DHT22;39156;51.176;6.738;2022-07-26T10:52:20;26.40;43.40
53268;DHT22;39156;51.176;6.738;2022-07-26T10:57:30;26.50;43.40
53268;DHT22;39156;51.176;6.738;2022-07-26T10:59:59;26.40;43.20
53268;DHT22;39156;51.176;6.738;2022-07-26T11:02:30;26.50;43.10
53268;DHT22;39156;51.176;6.738;2022-07-26T11:05:01;26.50;43.00
53268;DHT22;39156;51.176;6.738;2022-07-26T11:07:30;26.60;42.60
53268;DHT22;39156;51.176;6.738;2022-07-26T11:10:01;26.60;42.60
53268;DHT22;39156;51.176;6.738;2022-07-26T11:12:26;26.70;43.00
53268;DHT22;39156;51.176;6.738;2022-07-26T11:14:52;26.70;42.60
53268;DHT22;39156;51.176;6.738;2022-07-26T11:17:26;26.60;42.50
53268;DHT22;39156;51.176;6.738;2022-07-26T11:19:53;26.50;42.70
53268;DHT22;39156;51.176;6.738;2022-07-26T11:22:19;26.30;43.30
53268;DHT22;39156;51.176;6.738;2022-07-26T11:24:46;26.10;42.90
53268;DHT22;39156;51.176;6.738;2022-07-26T11:27:12;25.90;43.40
53268;DHT22;39156;51.176;6.738;2022-07-26T11:29:38;25.60;43.70
53268;DHT22;39156;51.176;6.738;2022-07-26T11:32:05;25.40;44.40
53268;DHT22;39156;51.176;6.738;2022-07-26T11:34:40;25.20;44.60
53268;DHT22;39156;51.176;6.738;2022-07-26T11:37:05;25.10;44.70
53268;DHT22;39156;51.176;6.738;2022-07-26T11:39:35;24.90;45.10
53268;DHT22;39156;51.176;6.738;2022-07-26T11:42:03;24.80;45.20
53268;DHT22;39156;51.176;6.738;2022-07-26T11:44:31;24.60;45.50
53268;DHT22;39156;51.176;6.738;2022-07-26T11:46:57;24.50;46.10
53268;DHT22;39156;51.176;6.738;2022-07-26T11:49:27;24.40;45.80
53268;DHT22;39156;51.176;6.738;2022-07-26T11:52:01;24.30;46.70
53268;DHT22;39156;51.176;6.738;2022-07-26T11:54:30;24.30;47.20
53268;DHT22;39156;51.176;6.738;2022-07-26T11:57:02;24.30;47.30
53268;DHT22;39156;51.176;6.738;2022-07-26T11:59:34;24.20;47.50
53268;DHT22;39156;51.176;6.738;2022-07-26T12:02:02;24.20;47.50
53268;DHT22;39156;51.176;6.738;2022-07-26T12:04:34;24.20;47.50
53268;DHT22;39156;51.176;6.738;2022-07-26T12:07:15;24.10;47.50
53268;DHT22;39156;51.176;6.738;2022-07-26T12:09:49;24.00;47.80
53268;DHT22;39156;51.176;6.738;2022-07-26T12:12:27;24.00;47.60
53268;DHT22;39156;51.176;6.738;2022-07-26T12:14:58;24.10;47.80
53268;DHT22;39156;51.176;6.738;2022-07-26T12:17:26;24.10;47.80
53268;DHT22;39156;51.176;6.738;2022-07-26T12:19:52;24.30;47.90
53268;DHT22;39156;51.176;6.738;2022-07-26T12:22:20;24.40;47.60
53268;DHT22;39156;51.176;6.738;2022-07-26T12:24:55;24.50;47.20
53268;DHT22;39156;51.176;6.738;2022-07-26T12:27:27;24.70;46.80
53268;DHT22;39156;51.176;6.738;2022-07-26T12:30:15;24.70;46.30
53268;DHT22;39156;51.176;6.738;2022-07-26T12:32:42;24.70;46.80
53268;DHT22;39156;51.176;6.738;2022-07-26T12:40:14;24.80;45.80
53268;DHT22;39156;51.176;6.738;2022-07-26T12:43:00;24.70;45.70
53268;DHT22;39156;51.176;6.738;2022-07-26T12:45:31;24.70;46.00
53268;DHT22;39156;51.176;6.738;2022-07-26T12:47:59;24.70;46.20
53268;DHT22;39156;51.176;6.738;2022-07-26T12:50:28;24.80;46.20
53268;DHT22;39156;51.176;6.738;2022-07-26T12:53:00;24.80;45.80
53268;DHT22;39156;51.176;6.738;2022-07-26T12:55:27;24.80;45.70
53268;DHT22;39156;51.176;6.738;2022-07-26T12:57:53;24.90;45.90
53268;DHT22;39156;51.176;6.738;2022-07-26T13:00:19;25.00;45.40
53268;DHT22;39156;51.176;6.738;2022-07-26T13:02:45;25.10;45.40
53268;DHT22;39156;51.176;6.738;2022-07-26T13:05:12;25.30;46.00
53268;DHT22;39156;51.176;6.738;2022-07-26T13:07:38;25.40;45.40
53268;DHT22;39156;51.176;6.738;2022-07-26T13:10:05;25.50;45.10
53268;DHT22;39156;51.176;6.738;2022-07-26T13:12:31;25.60;44.60
53268;DHT22;39156;51.176;6.738;2022-07-26T13:14:57;25.60;44.20
53268;DHT22;39156;51.176;6.738;2022-07-26T13:17:23;25.60;44.10
53268;DHT22;39156;51.176;6.738;2022-07-26T13:19:48;25.50;44.10
53268;DHT22;39156;51.176;6.738;2022-07-26T13:22:14;25.40;44.00
53268;DHT22;39156;51.176;6.738;2022-07-26T13:24:40;25.30;43.90
53268;DHT22;39156;51.176;6.738;2022-07-26T13:27:06;25.20;44.30
53268;DHT22;39156;51.176;6.738;2022-07-26T13:29:33;25.10;44.20
53268;DHT22;39156;51.176;6.738;2022-07-26T13:32:01;25.00;44.30
53268;DHT22;39156;51.176;6.738;2022-07-26T13:34:27;24.90;44.30
53268;DHT22;39156;51.176;6.738;2022-07-26T13:36:55;24.70;44.70
53268;DHT22;39156;51.176;6.738;2022-07-26T13:39:21;24.50;44.80
53268;DHT22;39156;51.176;6.738;2022-07-26T13:41:47;24.40;44.90
53268;DHT22;39156;51.176;6.738;2022-07-26T13:44:13;24.30;44.90
53268;DHT22;39156;51.176;6.738;2022-07-26T13:46:39;24.30;45.10
53268;DHT22;39156;51.176;6.738;2022-07-26T13:49:04;24.30;45.30
53268;DHT22;39156;51.176;6.738;2022-07-26T13:51:33;24.20;45.30
53268;DHT22;39156;51.176;6.738;2022-07-26T13:54:21;24.20;45.50
53268;DHT22;39156;51.176;6.738;2022-07-26T13:56:48;24.20;45.90
53268;DHT22;39156;51.176;6.738;2022-07-26T13:59:14;24.10;46.00
53268;DHT22;39156;51.176;6.738;2022-07-26T14:01:40;24.10;45.50
53268;DHT22;39156;51.176;6.738;2022-07-26T14:04:08;24.10;46.50
53268;DHT22;39156;51.176;6.738;2022-07-26T14:06:34;24.00;46.00
53268;DHT22;39156;51.176;6.738;2022-07-26T14:09:02;23.90;46.00
53268;DHT22;39156;51.176;6.738;2022-07-26T14:11:28;23.90;46.10
53268;DHT22;39156;51.176;6.738;2022-07-26T14:13:54;23.80;46.30
53268;DHT22;39156;51.176;6.738;2022-07-26T14:16:20;23.70;46.20
53268;DHT22;39156;51.176;6.738;2022-07-26T14:18:46;23.60;46.40
53268;DHT22;39156;51.176;6.738;2022-07-26T14:21:13;23.60;46.90
53268;DHT22;39156;51.176;6.738;2022-07-26T14:23:39;23.50;47.20
53268;DHT22;39156;51.176;6.738;2022-07-26T14:26:05;23.50;47.60
53268;DHT22;39156;51.176;6.738;2022-07-26T14:28:30;23.60;47.80
53268;DHT22;39156;51.176;6.738;2022-07-26T14:30:56;23.60;48.00
53268;DHT22;39156;51.176;6.738;2022-07-26T14:33:22;23.70;47.90
53268;DHT22;39156;51.176;6.738;2022-07-26T14:35:48;23.70;47.70
53268;DHT22;39156;51.176;6.738;2022-07-26T14:38:13;23.80;47.60
53268;DHT22;39156;51.176;6.738;2022-07-26T14:40:39;23.80;48.00
53268;DHT22;39156;51.176;6.738;2022-07-26T14:43:05;23.80;47.60
53268;DHT22;39156;51.176;6.738;2022-07-26T14:45:31;23.80;47.70
53268;DHT22;39156;51.176;6.738;2022-07-26T14:47:57;23.70;47.90
53268;DHT22;39156;51.176;6.738;2022-07-26T14:50:23;23.60;47.70
53268;DHT22;39156;51.176;6.738;2022-07-26T14:52:51;23.50;47.60
53268;DHT22;39156;51.176;6.738;2022-07-26T14:55:18;23.50;47.60
53268;DHT22;39156;51.176;6.738;2022-07-26T14:57:44;23.40;47.70
53268;DHT22;39156;51.176;6.738;2022-07-26T15:00:12;23.30;47.40
53268;DHT22;39156;51.176;6.738;2022-07-26T15:02:45;23.20;48.60
53268;DHT22;39156;51.176;6.738;2022-07-26T15:05:12;23.10;48.60
53268;DHT22;39156;51.176;6.738;2022-07-26T15:07:40;23.00;49.20
53268;DHT22;39156;51.176;6.738;2022-07-26T15:10:08;23.10;48.10
53268;DHT22;39156;51.176;6.738;2022-07-26T15:12:35;23.10;48.00
53268;DHT22;39156;51.176;6.738;2022-07-26T15:15:01;23.00;47.70
53268;DHT22;39156;51.176;6.738;2022-07-26T15:17:28;23.00;48.20
53268;DHT22;39156;51.176;6.738;2022-07-26T15:19:53;22.90;48.00
53268;DHT22;39156;51.176;6.738;2022-07-26T15:22:19;22.90;48.40
53268;DHT22;39156;51.176;6.738;2022-07-26T15:24:45;22.90;47.90
53268;DHT22;39156;51.176;6.738;2022-07-26T15:27:10;22.90;48.10
53268;DHT22;39156;51.176;6.738;2022-07-26T15:29:36;22.90;48.30
53268;DHT22;39156;51.176;6.738;2022-07-26T15:32:02;23.00;48.40
53268;DHT22;39156;51.176;6.738;2022-07-26T15:34:29;22.90;48.30
53268;DHT22;39156;51.176;6.738;2022-07-26T15:36:55;22.90;48.30
53268;DHT22;39156;51.176;6.738;2022-07-26T15:39:20;22.90;48.30
53268;DHT22;39156;51.176;6.738;2022-07-26T15:41:47;22.90;48.10
53268;DHT22;39156;51.176;6.738;2022-07-26T15:44:18;22.80;48.00
53268;DHT22;39156;51.176;6.738;2022-07-26T15:46:44;22.80;47.60
53268;DHT22;39156;51.176;6.738;2022-07-26T15:49:12;22.80;47.30
53268;DHT22;39156;51.176;6.738;2022-07-26T15:51:39;22.70;46.70
53268;DHT22;39156;51.176;6.738;2022-07-26T15:54:08;22.70;46.80